Time;durP1;ratioP1;P1;durP2;ratioP2;P2;SDS_P1;SDS_P2;PMS_P1;PMS_P2;Temp;Humidity;BMP_temperature;BMP_pressure;BME280_temperature;BME280_humidity;BME280_pressure;Samples;Min_cycle;Max_cycle;Signal;HPM_P1;HPM_P2
2023/08/26 00:01:33;;;;;;;17.08;15.32;;;;;;;22.16;81.81;92909.84;5054245;28;20215;-87
2023/08/26 00:03:58;;;;;;;17.02;15.45;;;;;;;22.01;81.35;92880.56;5069298;28;20206;-81
2023/08/26 00:06:24;;;;;;;17.88;16.23;;;;;;;22.34;81.56;92920.91;5060169;28;20223;-88
2023/08/26 00:08:52;;;;;;;15.90;14.40;;;;;;;22.20;82.49;92917.91;5069266;28;20228;-88
2023/08/26 00:11:18;;;;;;;16.73;14.90;;;;;;;22.18;81.22;92906.81;5079510;28;20248;-87
2023/08/26 00:13:43;;;;;;;17.48;15.65;;;;;;;22.02;82.32;92906.06;5067345;28;20191;-86
2023/08/26 00:16:09;;;;;;;17.33;15.63;;;;;;;22.11;82.14;92911.97;5068346;28;20226;-87
2023/08/26 00:18:34;;;;;;;17.42;15.70;;;;;;;22.09;82.22;92922.97;5069339;28;20182;-87
2023/08/26 00:21:00;;;;;;;16.25;14.38;;;;;;;21.94;81.63;92910.44;5068973;28;20235;-86
2023/08/26 00:23:26;;;;;;;17.95;16.10;;;;;;;22.04;81.73;92922.44;5067453;28;20242;-86
2023/08/26 00:25:51;;;;;;;15.88;14.57;;;;;;;21.98;81.21;92905.19;5072735;28;20253;-88
2023/08/26 00:28:16;;;;;;;17.02;15.55;;;;;;;22.08;81.85;92913.44;5077258;28;20211;-88
2023/08/26 00:30:42;;;;;;;16.45;14.75;;;;;;;22.01;81.84;92905.28;5079839;28;20231;-87
2023/08/26 00:33:07;;;;;;;17.27;15.55;;;;;;;21.99;81.80;92901.44;5072459;28;20191;-88
2023/08/26 00:35:33;;;;;;;16.88;15.18;;;;;;;21.99;82.54;92901.44;5072518;28;20253;-89
2023/08/26 00:37:58;;;;;;;16.05;14.70;;;;;;;22.05;82.19;92900.06;5072709;28;20191;-86
2023/08/26 00:40:24;;;;;;;17.20;15.35;;;;;;;22.00;82.72;92902.97;5077265;28;20241;-87
2023/08/26 00:42:53;;;;;;;17.60;16.02;;;;;;;21.84;83.26;92886.97;5072783;28;20194;-89
2023/08/26 00:45:18;;;;;;;17.77;16.00;;;;;;;21.78;84.27;92898.19;5072566;28;20226;-87
2023/08/26 00:47:44;;;;;;;17.60;16.00;;;;;;;21.89;83.24;92904.56;5071274;28;20269;-88
2023/08/26 00:50:09;;;;;;;17.20;15.60;;;;;;;21.88;83.24;92898.47;5065216;28;20231;-88
2023/08/26 00:52:35;;;;;;;16.52;15.13;;;;;;;21.72;83.20;92900.31;5070563;28;20211;-88
2023/08/26 00:55:01;;;;;;;17.02;15.43;;;;;;;21.79;82.65;92899.75;5056207;28;20187;-87
2023/08/26 00:57:27;;;;;;;17.10;15.40;;;;;;;21.79;83.53;92899.75;5072171;28;20192;-88
2023/08/26 00:59:52;;;;;;;18.58;16.67;;;;;;;21.72;84.05;92894.22;5063230;28;20183;-87
2023/08/26 01:02:18;;;;;;;19.75;16.02;;;;;;;21.69;83.97;92894.91;5072275;28;21228;-88
2023/08/26 01:04:43;;;;;;;18.63;16.50;;;;;;;21.68;83.52;92893.34;5065021;28;20175;-84
2023/08/26 01:07:09;;;;;;;18.52;16.85;;;;;;;21.59;83.43;92879.44;5070132;28;20225;-88
2023/08/26 01:09:37;;;;;;;16.75;15.13;;;;;;;21.76;83.02;92893.22;5072413;28;20182;-88
2023/08/26 01:12:23;;;;;;;17.83;16.02;;;;;;;21.75;83.81;92888.25;5071612;28;20226;-89
2023/08/26 01:14:59;;;;;;;17.80;16.13;;;;;;;21.78;83.31;92887.56;5071884;28;20259;-83
2023/08/26 01:17:25;;;;;;;17.77;16.08;;;;;;;21.67;83.77;92884.59;5072199;28;20186;-88
2023/08/26 01:19:54;;;;;;;19.55;16.38;;;;;;;21.62;83.68;92884.09;5069323;28;20193;-82
2023/08/26 01:22:23;;;;;;;18.33;16.50;;;;;;;21.74;83.19;92886.69;5059149;28;20969;-89
2023/08/26 01:24:49;;;;;;;17.17;15.65;;;;;;;21.81;83.44;92886.88;5071485;28;20206;-82
2023/08/26 01:27:14;;;;;;;17.15;15.35;;;;;;;21.74;82.69;92881.38;5053811;28;20229;-87
2023/08/26 01:29:39;;;;;;;17.15;15.68;;;;;;;21.66;83.87;92888.38;5052655;28;20829;-85
2023/08/26 01:32:35;;;;;;;17.08;15.55;;;;;;;21.62;84.59;92884.09;5071579;28;20220;-88
2023/08/26 01:35:05;;;;;;;17.08;15.43;;;;;;;21.64;84.90;92879.97;5070590;28;20250;-88
2023/08/26 01:37:31;;;;;;;16.75;15.25;;;;;;;21.58;85.54;92888.53;5071964;28;20241;-84
2023/08/26 01:39:58;;;;;;;17.98;16.30;;;;;;;21.50;85.20;92870.84;5071489;28;20268;-88
2023/08/26 01:42:26;;;;;;;17.40;15.50;;;;;;;21.66;85.17;92879.63;5069114;28;20187;-89
2023/08/26 01:44:51;;;;;;;16.77;15.30;;;;;;;21.70;84.48;92880.47;5068781;28;20190;-88
2023/08/26 01:47:17;;;;;;;18.38;16.63;;;;;;;21.53;84.73;92878.91;5066251;28;20230;-90
2023/08/26 01:49:43;;;;;;;18.42;16.73;;;;;;;21.32;86.27;92885.53;5071832;28;20262;-84
2023/08/26 01:52:10;;;;;;;19.58;17.60;;;;;;;21.18;87.23;92887.78;5069489;28;20282;-88
2023/08/26 01:54:35;;;;;;;18.35;16.55;;;;;;;21.16;86.81;92884.69;5074489;28;20183;-88
2023/08/26 01:57:00;;;;;;;20.08;18.17;;;;;;;21.46;85.98;92893.88;5069370;28;20253;-88
2023/08/26 01:59:26;;;;;;;18.13;16.38;;;;;;;21.53;85.35;92892.19;5068530;28;20273;-87
2023/08/26 02:01:51;;;;;;;19.38;17.48;;;;;;;21.44;85.56;92891.56;5068520;28;20227;-87
2023/08/26 02:04:17;;;;;;;18.48;16.67;;;;;;;21.22;85.62;92865.53;5079728;28;20197;-87
2023/08/26 02:06:42;;;;;;;18.30;16.42;;;;;;;21.39;86.33;92891.03;5070087;28;20252;-88
2023/08/26 02:09:07;;;;;;;16.75;15.15;;;;;;;21.45;86.00;92889.66;5071422;28;20278;-87
2023/08/26 02:11:33;;;;;;;17.90;16.08;;;;;;;21.35;86.65;92890.16;5081830;28;20274;-86
2023/08/26 02:13:58;;;;;;;19.20;17.50;;;;;;;21.36;86.68;92889.03;5058641;28;20200;-88
2023/08/26 02:16:24;;;;;;;17.10;15.60;;;;;;;21.29;86.42;92891.50;5070605;28;20238;-88
2023/08/26 02:18:49;;;;;;;19.60;16.45;;;;;;;21.29;85.82;92883.56;5063175;28;20191;-87
2023/08/26 02:21:14;;;;;;;18.58;16.20;;;;;;;21.24;86.27;92876.59;5062907;28;20228;-91
2023/08/26 02:23:40;;;;;;;18.23;16.60;;;;;;;21.11;87.03;92872.41;5071011;28;20191;-87
2023/08/26 02:26:05;;;;;;;18.92;16.95;;;;;;;21.03;87.41;92861.94;5069993;28;20252;-85
2023/08/26 02:28:30;;;;;;;18.90;17.10;;;;;;;21.07;87.21;92862.81;5081867;28;20221;-88
2023/08/26 02:30:56;;;;;;;18.83;17.02;;;;;;;21.12;86.72;92862.56;5069463;28;20262;-88
2023/08/26 02:33:22;;;;;;;18.73;17.02;;;;;;;21.12;86.98;92863.31;5070621;28;20196;-87
2023/08/26 02:35:48;;;;;;;21.70;17.13;;;;;;;21.15;87.02;92862.69;5069003;28;20228;-88
2023/08/26 02:38:14;;;;;;;19.42;17.42;;;;;;;20.81;87.25;92814.63;5068760;28;20240;-88
2023/08/26 02:40:39;;;;;;;22.50;17.05;;;;;;;21.07;88.22;92847.66;5069876;28;20233;-88
2023/08/26 02:43:05;;;;;;;22.38;17.60;;;;;;;21.07;88.51;92855.63;5074425;28;20187;-89
2023/08/26 02:45:30;;;;;;;19.48;17.40;;;;;;;21.04;88.36;92858.97;5075568;28;20237;-88
2023/08/26 02:47:57;;;;;;;18.48;16.70;;;;;;;21.08;88.27;92867.78;5074715;28;20217;-87
2023/08/26 02:50:24;;;;;;;22.63;17.17;;;;;;;20.87;89.27;92866.38;5075874;28;20230;-88
2023/08/26 02:52:50;;;;;;;19.38;17.23;;;;;;;20.91;88.46;92869.88;5069330;28;20177;-88
2023/08/26 02:55:15;;;;;;;18.80;16.90;;;;;;;20.87;88.94;92869.03;5068316;28;20234;-87
2023/08/26 02:57:41;;;;;;;19.27;17.30;;;;;;;20.86;89.86;92870.13;5071246;28;20283;-87
2023/08/26 03:00:07;;;;;;;19.60;17.23;;;;;;;20.84;89.59;92864.38;5067524;28;20204;-88
2023/08/26 03:02:32;;;;;;;18.85;17.08;;;;;;;20.83;88.93;92868.13;5067875;28;20203;-86
2023/08/26 03:04:57;;;;;;;17.63;16.02;;;;;;;20.86;89.26;92870.91;5069603;28;20892;-88
2023/08/26 03:07:23;;;;;;;20.10;17.57;;;;;;;20.80;89.79;92871.44;5069827;28;21167;-88
2023/08/26 03:09:48;;;;;;;18.85;17.05;;;;;;;20.65;91.16;92863.06;5068913;28;20191;-78
2023/08/26 03:12:14;;;;;;;20.48;17.58;;;;;;;20.68;91.16;92865.06;5071352;28;20195;-88
2023/08/26 03:14:39;;;;;;;19.13;17.30;;;;;;;20.51;91.15;92824.75;5076108;28;20207;-87
2023/08/26 03:17:04;;;;;;;18.80;16.90;;;;;;;20.73;91.16;92871.25;5068861;28;20219;-88
2023/08/26 03:19:30;;;;;;;18.95;16.98;;;;;;;20.65;91.21;92862.31;5072585;28;20182;-87
2023/08/26 03:21:55;;;;;;;19.50;17.80;;;;;;;20.67;91.26;92878.66;5066600;28;20245;-88
2023/08/26 03:24:20;;;;;;;20.42;18.42;;;;;;;20.69;91.45;92879.88;5066635;28;20261;-88
2023/08/26 03:26:46;;;;;;;20.50;18.42;;;;;;;20.61;91.90;92880.78;5062758;28;20232;-88
2023/08/26 03:29:11;;;;;;;20.30;18.30;;;;;;;20.54;93.08;92893.84;5068396;28;20196;-88
2023/08/26 03:31:38;;;;;;;21.95;19.27;;;;;;;20.34;94.18;92889.38;5076727;28;20367;-88
2023/08/26 03:34:03;;;;;;;21.58;18.67;;;;;;;20.28;94.80;92890.72;5062112;28;20183;-87
2023/08/26 03:36:29;;;;;;;24.33;17.92;;;;;;;20.41;94.77;92899.44;5060682;28;20228;-88
2023/08/26 03:38:55;;;;;;;20.55;18.02;;;;;;;20.52;94.05;92896.03;5069609;28;20213;-87
2023/08/26 03:41:20;;;;;;;21.70;17.95;;;;;;;20.25;94.15;92880.78;5073502;28;20228;-87
2023/08/26 03:43:46;;;;;;;30.27;19.88;;;;;;;20.36;95.33;92903.09;5077376;28;20176;-88
2023/08/26 03:46:11;;;;;;;20.20;18.10;;;;;;;20.24;95.72;92904.97;5081155;28;20231;-87
2023/08/26 03:48:36;;;;;;;19.30;17.55;;;;;;;20.26;95.08;92898.25;5069408;28;20217;-86
2023/08/26 03:51:02;;;;;;;19.73;17.58;;;;;;;20.24;95.12;92891.72;5068260;28;20274;-87
2023/08/26 03:53:28;;;;;;;18.63;16.73;;;;;;;20.31;94.51;92887.41;5069742;28;20721;-87
2023/08/26 03:55:53;;;;;;;19.23;17.33;;;;;;;20.22;94.40;92884.09;5067428;28;20226;-89
2023/08/26 03:58:19;;;;;;;18.80;16.90;;;;;;;20.27;95.48;92905.09;5069731;28;20283;-87
2023/08/26 04:00:44;;;;;;;20.20;17.80;;;;;;;20.31;94.76;92916.56;5075929;28;20936;-88
2023/08/26 04:03:10;;;;;;;19.27;17.38;;;;;;;20.40;94.27;92909.31;5081014;28;20183;-86
2023/08/26 04:05:36;;;;;;;19.00;17.13;;;;;;;20.50;93.97;92908.84;5077413;28;20238;-89
2023/08/26 04:08:02;;;;;;;19.98;18.02;;;;;;;20.56;93.47;92904.88;5090628;28;20243;-88
2023/08/26 04:10:27;;;;;;;17.73;15.95;;;;;;;20.31;94.26;92884.00;5072695;28;20230;-86
2023/08/26 04:12:53;;;;;;;19.27;17.42;;;;;;;20.51;94.18;92902.44;5073068;28;20875;-87
2023/08/26 04:15:18;;;;;;;19.50;17.48;;;;;;;20.64;93.40;92909.28;5077148;28;20817;-87
2023/08/26 04:17:44;;;;;;;18.05;16.35;;;;;;;20.47;93.88;92895.47;5076999;28;20192;-81
2023/08/26 04:20:11;;;;;;;19.13;17.17;;;;;;;20.73;93.89;92911.06;5066657;28;20225;-87
2023/08/26 04:22:37;;;;;;;19.63;16.90;;;;;;;20.76;92.23;92907.75;5074885;28;20237;-88
2023/08/26 04:25:03;;;;;;;18.90;17.20;;;;;;;20.82;93.50;92914.38;5073862;28;20185;-83
2023/08/26 04:27:28;;;;;;;20.20;17.23;;;;;;;20.86;93.57;92902.75;5073465;28;20213;-88
2023/08/26 04:29:54;;;;;;;20.08;17.95;;;;;;;20.94;93.19;92911.69;5072576;28;20193;-84
2023/08/26 04:32:19;;;;;;;21.67;17.77;;;;;;;20.97;93.20;92921.66;5072703;28;20189;-88
2023/08/26 04:34:45;;;;;;;20.55;17.67;;;;;;;21.22;90.41;92918.63;5072668;28;20180;-87
2023/08/26 04:37:12;;;;;;;19.88;17.80;;;;;;;21.27;90.71;92922.94;5077153;28;20242;-89
2023/08/26 04:39:38;;;;;;;20.85;18.70;;;;;;;21.21;91.46;92922.41;5067944;28;20194;-88
2023/08/26 04:42:03;;;;;;;22.13;19.63;;;;;;;21.31;90.74;92921.19;5072513;28;20280;-88
2023/08/26 04:44:29;;;;;;;21.50;19.15;;;;;;;21.49;89.84;92923.22;5072701;28;20186;-88
2023/08/26 04:46:54;;;;;;;22.15;19.90;;;;;;;21.53;90.01;92925.94;5072168;28;20230;-88
2023/08/26 04:49:20;;;;;;;21.85;19.67;;;;;;;21.67;89.55;92924.47;5071873;28;20177;-88
2023/08/26 04:51:53;;;;;;;21.65;19.33;;;;;;;21.68;89.36;92925.25;5060718;28;20238;-88
2023/08/26 04:54:18;;;;;;;21.15;18.95;;;;;;;21.78;88.39;92914.16;5069648;28;20756;-92
2023/08/26 04:56:44;;;;;;;21.25;18.83;;;;;;;21.84;88.50;92926.06;5068134;28;20225;-87
2023/08/26 04:59:09;;;;;;;21.20;19.10;;;;;;;21.91;87.96;92929.72;5067449;28;20205;-85
2023/08/26 05:01:34;;;;;;;23.23;18.65;;;;;;;21.93;87.67;92919.50;5068388;28;20298;-86
2023/08/26 05:04:00;;;;;;;20.88;17.90;;;;;;;22.13;86.96;92931.03;5063032;28;20197;-88
2023/08/26 05:06:25;;;;;;;21.75;19.13;;;;;;;22.16;86.62;92930.34;5070659;28;20217;-83
2023/08/26 05:08:50;;;;;;;21.55;19.35;;;;;;;21.92;87.42;92919.84;5071444;28;20226;-75
2023/08/26 05:11:16;;;;;;;21.10;18.90;;;;;;;21.67;88.37;92929.00;5067996;28;20261;-81
2023/08/26 05:13:41;;;;;;;26.38;21.05;;;;;;;22.03;87.01;92920.88;5069715;28;20202;-80
2023/08/26 05:16:07;;;;;;;23.83;19.20;;;;;;;22.06;86.58;92918.34;5061125;28;20228;-84
2023/08/26 05:18:32;;;;;;;22.63;19.67;;;;;;;22.29;86.21;92931.81;5065242;28;20203;-86
2023/08/26 05:20:57;;;;;;;22.48;20.17;;;;;;;22.61;84.35;92941.41;5066651;28;20224;-83
2023/08/26 05:23:23;;;;;;;24.08;20.60;;;;;;;22.64;84.50;92926.63;5078264;28;20945;-80
2023/08/26 05:25:48;;;;;;;23.13;20.23;;;;;;;22.57;84.77;92931.78;5060498;28;21109;-88
2023/08/26 05:28:16;;;;;;;22.58;20.10;;;;;;;22.84;83.34;92933.53;5068033;28;20216;-82
2023/08/26 05:30:42;;;;;;;22.42;20.00;;;;;;;22.92;82.74;92935.25;5064185;28;20257;-84
2023/08/26 05:33:07;;;;;;;21.73;19.48;;;;;;;22.96;82.61;92934.22;5067075;28;20199;-80
2023/08/26 05:35:33;;;;;;;28.95;23.65;;;;;;;23.01;82.14;92936.63;5066137;28;20830;-82
2023/08/26 05:37:58;;;;;;;21.98;19.63;;;;;;;22.63;83.81;92933.06;5073418;28;20289;-80
2023/08/26 05:40:28;;;;;;;25.45;19.60;;;;;;;22.88;83.01;92929.09;5055129;28;21094;-82
2023/08/26 05:42:55;;;;;;;24.60;20.05;;;;;;;23.06;81.88;92944.34;5064931;28;20207;-82
2023/08/26 05:45:21;;;;;;;20.70;18.60;;;;;;;23.17;81.50;92948.03;5072125;28;20241;-83
2023/08/26 05:47:46;;;;;;;24.75;20.10;;;;;;;22.87;82.97;92940.84;5068963;28;20206;-85
2023/08/26 05:50:12;;;;;;;23.98;21.48;;;;;;;23.03;82.22;92947.72;5068360;28;20228;-83
2023/08/26 05:52:37;;;;;;;21.77;19.40;;;;;;;23.77;78.19;92936.72;5073536;28;20246;-80
2023/08/26 05:55:03;;;;;;;22.00;19.70;;;;;;;24.04;76.18;92958.22;5074007;28;20897;-81
2023/08/26 05:57:28;;;;;;;24.88;18.92;;;;;;;23.98;75.44;92954.31;5069927;28;20191;-84
2023/08/26 05:59:53;;;;;;;22.70;19.63;;;;;;;25.71;69.31;92951.41;5058648;28;20260;-80
2023/08/26 06:02:19;;;;;;;20.15;17.67;;;;;;;29.56;56.26;92945.88;5075894;28;20180;-81
2023/08/26 06:04:44;;;;;;;20.88;18.67;;;;;;;30.05;52.58;92970.00;5059521;28;20190;-82
2023/08/26 06:07:09;;;;;;;20.30;16.92;;;;;;;31.42;48.62;92961.13;5074097;28;20221;-83
2023/08/26 06:09:35;;;;;;;18.27;15.93;;;;;;;31.78;46.61;92965.00;5065578;28;20181;-82
2023/08/26 06:12:00;;;;;;;18.75;16.98;;;;;;;28.84;54.71;92940.19;5065267;28;20217;-81
2023/08/26 06:14:26;;;;;;;22.15;17.27;;;;;;;26.47;62.18;92942.72;5065508;28;20189;-82
2023/08/26 06:16:51;;;;;;;18.38;15.70;;;;;;;26.22;64.40;92956.97;5063433;28;20228;-82
2023/08/26 06:19:16;;;;;;;20.33;16.90;;;;;;;25.31;67.50;92948.53;5060978;28;20197;-83
2023/08/26 06:21:42;;;;;;;17.27;15.48;;;;;;;24.95;69.30;92935.81;5052516;28;20232;-81
2023/08/26 06:24:07;;;;;;;21.92;17.52;;;;;;;24.51;71.53;92934.69;5065435;28;20185;-81
2023/08/26 06:26:33;;;;;;;17.75;15.93;;;;;;;24.73;70.54;92947.28;5064377;28;20236;-82
2023/08/26 06:28:58;;;;;;;18.77;15.75;;;;;;;24.51;72.25;92948.03;5061075;28;20189;-78
2023/08/26 06:31:23;;;;;;;18.00;16.30;;;;;;;25.06;70.08;92945.50;5058807;28;20288;-81
2023/08/26 06:33:49;;;;;;;17.35;15.60;;;;;;;25.27;68.34;92950.41;5068682;28;20192;-82
2023/08/26 06:36:15;;;;;;;17.48;15.75;;;;;;;24.87;69.89;92963.53;5061105;28;20229;-83
2023/08/26 06:38:40;;;;;;;16.83;15.10;;;;;;;25.21;67.54;92954.50;5064021;28;20198;-82
2023/08/26 06:41:06;;;;;;;16.75;15.35;;;;;;;25.56;67.50;92967.63;5053422;28;20227;-80
2023/08/26 06:43:31;;;;;;;15.70;14.30;;;;;;;25.91;65.66;92968.84;5066877;28;20219;-81
2023/08/26 06:45:57;;;;;;;15.32;13.98;;;;;;;25.59;64.69;92967.66;5062975;28;20232;-82
2023/08/26 06:48:22;;;;;;;15.90;14.30;;;;;;;25.89;62.99;92960.41;5057143;28;20216;-83
2023/08/26 06:50:49;;;;;;;16.63;14.93;;;;;;;25.67;64.14;92969.31;5055313;28;20251;-77
2023/08/26 06:53:20;;;;;;;19.42;16.00;;;;;;;26.00;62.84;92972.03;5055207;28;20237;-80
2023/08/26 06:55:47;;;;;;;16.10;14.55;;;;;;;26.11;62.93;92978.28;5062598;28;20238;-85
2023/08/26 06:58:12;;;;;;;17.52;15.63;;;;;;;26.21;62.81;92976.88;5050156;28;20189;-84
2023/08/26 07:00:37;;;;;;;16.67;15.23;;;;;;;26.17;62.17;92976.03;5052172;28;20288;-84
2023/08/26 07:03:03;;;;;;;16.25;14.68;;;;;;;25.88;62.50;92982.19;5064293;28;20219;-83
2023/08/26 07:05:28;;;;;;;16.48;15.02;;;;;;;26.45;62.05;92985.16;5061829;28;20243;-84
2023/08/26 07:07:53;;;;;;;17.25;15.27;;;;;;;26.67;60.39;92978.91;5049685;28;20251;-83
2023/08/26 07:10:19;;;;;;;17.80;15.70;;;;;;;26.84;60.61;92982.09;5054302;28;20230;-83
2023/08/26 07:12:44;;;;;;;16.75;15.30;;;;;;;26.63;60.59;92972.72;5049996;28;20240;-84
2023/08/26 07:15:11;;;;;;;18.75;16.90;;;;;;;26.15;63.30;92986.38;5060626;28;20240;-84
2023/08/26 07:17:36;;;;;;;17.77;16.15;;;;;;;26.09;63.17;92979.78;5066805;28;20221;-85
2023/08/26 07:20:02;;;;;;;17.15;15.57;;;;;;;26.21;63.94;92979.53;5068630;28;21052;-84
2023/08/26 07:22:27;;;;;;;17.05;15.25;;;;;;;26.72;61.85;92970.50;5064430;28;20186;-84
2023/08/26 07:24:53;;;;;;;16.33;14.73;;;;;;;26.99;61.78;92979.16;5063722;28;21115;-83
2023/08/26 07:27:18;;;;;;;20.00;15.77;;;;;;;27.21;59.61;92980.88;5053224;28;20786;-84
2023/08/26 07:29:44;;;;;;;15.88;14.40;;;;;;;27.43;58.27;92987.94;5056512;28;20251;-82
2023/08/26 07:32:09;;;;;;;18.77;15.02;;;;;;;27.32;58.19;92980.97;5049918;28;20218;-82
2023/08/26 07:34:35;;;;;;;17.17;14.77;;;;;;;27.45;57.81;92979.53;5053155;28;20181;-82
2023/08/26 07:37:00;;;;;;;15.95;14.40;;;;;;;27.51;58.43;92978.03;5051691;28;20259;-83
2023/08/26 07:39:26;;;;;;;16.92;15.18;;;;;;;27.70;58.14;92980.44;5057664;28;20182;-84
2023/08/26 07:41:51;;;;;;;17.13;15.35;;;;;;;27.59;57.50;92968.88;5068710;28;20239;-81
2023/08/26 07:44:17;;;;;;;15.15;13.75;;;;;;;27.73;56.47;92983.16;5067838;28;20186;-83
2023/08/26 07:46:42;;;;;;;14.93;13.63;;;;;;;27.59;56.92;92968.88;5088304;28;20223;-83
2023/08/26 07:49:07;;;;;;;15.35;14.02;;;;;;;27.82;56.28;92985.50;5058001;28;20390;-84
2023/08/26 07:51:33;;;;;;;17.33;14.05;;;;;;;27.89;56.24;92982.88;5067278;28;20260;-84
2023/08/26 07:53:58;;;;;;;17.00;14.82;;;;;;;27.92;55.25;92982.88;5053999;28;20190;-82
2023/08/26 07:56:23;;;;;;;14.85;13.68;;;;;;;27.90;54.64;92982.50;5067276;28;20229;-83
2023/08/26 07:58:49;;;;;;;15.82;14.32;;;;;;;28.00;54.81;92979.09;5067639;28;20186;-84
2023/08/26 08:01:14;;;;;;;15.82;14.25;;;;;;;27.84;55.75;92975.16;5077250;28;20232;-84
2023/08/26 08:03:40;;;;;;;16.67;14.32;;;;;;;27.88;55.61;92973.28;5060536;28;20206;-83
2023/08/26 08:06:05;;;;;;;22.00;14.82;;;;;;;28.04;54.32;92963.78;5061682;28;20237;-84
2023/08/26 08:08:30;;;;;;;15.40;13.93;;;;;;;28.31;52.63;92956.19;5068370;28;20204;-85
2023/08/26 08:10:56;;;;;;;17.42;14.05;;;;;;;28.39;51.72;92968.47;5062261;28;20229;-85
2023/08/26 08:13:21;;;;;;;15.13;13.82;;;;;;;27.91;54.42;92961.78;5061753;28;20177;-85
2023/08/26 08:15:46;;;;;;;14.95;13.75;;;;;;;28.16;54.19;92962.66;5067133;28;20243;-85
2023/08/26 08:18:12;;;;;;;15.45;13.95;;;;;;;28.12;52.87;92949.22;5060321;28;20197;-79
2023/08/26 08:20:37;;;;;;;16.05;14.43;;;;;;;28.06;54.65;92956.09;5063702;28;20243;-87
2023/08/26 08:23:03;;;;;;;15.82;14.43;;;;;;;28.31;52.64;92956.19;5054043;28;20216;-85
2023/08/26 08:25:29;;;;;;;15.23;13.82;;;;;;;28.56;52.66;92951.66;5055480;28;20222;-81
2023/08/26 08:27:55;;;;;;;15.50;14.15;;;;;;;28.82;51.18;92954.00;5058993;28;20216;-81
2023/08/26 08:30:20;;;;;;;15.88;14.38;;;;;;;28.77;52.09;92940.94;5067777;28;20225;-85
2023/08/26 08:32:46;;;;;;;16.70;13.93;;;;;;;28.94;51.19;92950.16;5064011;28;20194;-83
2023/08/26 08:35:11;;;;;;;15.82;14.25;;;;;;;28.83;50.54;92947.47;5065955;28;20236;-86
2023/08/26 08:37:36;;;;;;;16.15;14.48;;;;;;;28.90;50.08;92946.69;5063640;28;20217;-82
2023/08/26 08:40:02;;;;;;;16.73;15.00;;;;;;;28.72;50.97;92921.75;5066691;28;20181;-85
2023/08/26 08:42:32;;;;;;;15.00;13.68;;;;;;;28.95;50.53;92954.38;5054541;28;20250;-84
2023/08/26 08:44:58;;;;;;;16.90;15.40;;;;;;;28.99;50.25;92949.78;5061031;28;20269;-84
2023/08/26 08:47:23;;;;;;;15.32;13.98;;;;;;;29.09;50.30;92949.03;5069739;28;20215;-83
2023/08/26 08:49:49;;;;;;;15.45;14.05;;;;;;;28.83;50.95;92958.22;5071902;28;20184;-83
2023/08/26 08:52:16;;;;;;;16.45;14.85;;;;;;;28.76;51.52;92960.91;5058712;28;20186;-82
2023/08/26 08:54:44;;;;;;;16.10;14.65;;;;;;;28.97;50.85;92958.22;5067855;28;20211;-86
2023/08/26 08:57:13;;;;;;;16.25;14.48;;;;;;;29.01;50.74;92956.31;5060726;28;20250;-86
2023/08/26 08:59:40;;;;;;;16.20;14.60;;;;;;;28.81;51.10;92949.75;5078086;28;20196;-81
2023/08/26 09:02:05;;;;;;;15.68;14.07;;;;;;;29.25;49.48;92949.41;5059817;28;20220;-85
2023/08/26 09:04:32;;;;;;;16.45;15.10;;;;;;;29.09;49.43;92947.09;5073602;28;20193;-90
2023/08/26 09:06:57;;;;;;;15.20;13.80;;;;;;;29.23;50.20;92947.09;5071686;28;20221;-90
2023/08/26 09:09:23;;;;;;;14.50;13.30;;;;;;;29.55;48.35;92950.50;5061262;28;20218;-90
2023/08/26 09:11:50;;;;;;;14.48;13.20;;;;;;;29.65;48.33;92949.75;5076799;28;20227;-86
2023/08/26 09:14:16;;;;;;;15.52;14.10;;;;;;;29.77;47.17;92935.09;5072165;28;20199;-86
2023/08/26 09:16:43;;;;;;;15.63;13.95;;;;;;;29.84;47.26;92937.75;5065087;28;20229;-82
2023/08/26 09:19:10;;;;;;;17.58;14.25;;;;;;;29.84;46.93;92939.69;5063205;28;20203;-84
2023/08/26 09:21:45;;;;;;;15.95;14.55;;;;;;;29.96;46.69;92944.66;5051216;28;20222;-82
2023/08/26 09:24:15;;;;;;;16.35;14.85;;;;;;;29.91;48.85;92948.53;5061823;28;20215;-82
2023/08/26 09:26:41;;;;;;;16.77;14.50;;;;;;;30.16;46.22;92943.81;5067622;28;20254;-83
2023/08/26 09:29:20;;;;;;;15.57;14.00;;;;;;;30.11;47.18;92943.44;5069094;28;20206;-85
2023/08/26 09:31:49;;;;;;;14.85;13.63;;;;;;;29.91;45.93;92912.72;5078563;28;20231;-89
2023/08/26 09:34:25;;;;;;;15.95;14.65;;;;;;;29.99;47.51;92943.88;5070186;28;20194;-86
2023/08/26 09:36:50;;;;;;;16.13;14.30;;;;;;;30.14;47.65;92929.94;5061100;28;20236;-81
2023/08/26 09:39:16;;;;;;;16.25;14.68;;;;;;;30.32;46.11;92940.69;5060829;28;20190;-87
2023/08/26 09:41:43;;;;;;;14.63;13.35;;;;;;;30.16;46.27;92932.25;5061924;28;20229;-82
2023/08/26 09:44:12;;;;;;;16.50;14.75;;;;;;;30.22;46.20;92928.00;5064013;28;20220;-87
2023/08/26 09:46:39;;;;;;;15.27;13.93;;;;;;;30.19;46.47;92934.16;5070229;28;20220;-87
2023/08/26 09:49:05;;;;;;;15.55;14.05;;;;;;;30.34;45.64;92927.56;5056921;28;20201;-89
2023/08/26 09:51:31;;;;;;;15.00;13.60;;;;;;;30.34;45.45;92932.94;5065839;28;20236;-92
2023/08/26 09:53:57;;;;;;;14.98;13.50;;;;;;;30.37;45.20;92932.19;5067780;28;20211;-89
2023/08/26 09:56:24;;;;;;;14.18;12.90;;;;;;;30.38;43.90;92912.94;5068824;28;20213;-87
2023/08/26 09:58:54;;;;;;;14.32;12.90;;;;;;;30.20;43.40;92920.31;5065507;28;20215;-87
2023/08/26 10:01:20;;;;;;;14.55;13.07;;;;;;;30.19;42.74;92923.38;5058411;28;20237;-85
2023/08/26 10:03:51;;;;;;;15.00;13.52;;;;;;;29.61;45.29;92911.28;5060232;28;20199;-83
2023/08/26 10:06:19;;;;;;;14.95;13.65;;;;;;;29.56;43.88;92906.28;5060347;28;20236;-82
2023/08/26 10:08:50;;;;;;;13.98;12.68;;;;;;;29.53;44.54;92911.69;5065006;28;20203;-80
2023/08/26 10:11:20;;;;;;;14.95;13.60;;;;;;;29.49;43.92;92909.00;5065288;28;20235;-80
2023/08/26 10:13:50;;;;;;;13.68;12.32;;;;;;;29.73;43.52;92910.09;5062205;28;20246;-80
2023/08/26 10:16:18;;;;;;;13.93;12.68;;;;;;;29.90;44.46;92908.50;5055514;28;20275;-79
2023/08/26 10:18:48;;;;;;;14.45;13.05;;;;;;;30.22;41.91;92909.16;5083830;28;20207;-84
2023/08/26 10:21:14;;;;;;;14.55;13.07;;;;;;;30.22;42.22;92906.47;5061237;28;20225;-79
2023/08/26 10:23:39;;;;;;;14.07;12.75;;;;;;;29.92;41.56;92906.22;5060035;28;20199;-80
2023/08/26 10:26:07;;;;;;;14.88;12.57;;;;;;;30.50;41.12;92903.59;5054120;28;20264;-81
2023/08/26 10:28:34;;;;;;;12.88;11.75;;;;;;;30.63;41.01;92896.59;5056855;28;20214;-78
2023/08/26 10:31:00;;;;;;;13.38;12.27;;;;;;;30.90;39.35;92903.72;5063621;28;20225;-80
2023/08/26 10:33:26;;;;;;;12.93;11.93;;;;;;;31.00;40.14;92905.56;5061876;28;20236;-79
2023/08/26 10:35:59;;;;;;;12.55;11.48;;;;;;;30.74;39.01;92905.38;5068069;28;20292;-87
2023/08/26 10:38:25;;;;;;;13.13;11.93;;;;;;;30.93;39.02;92900.22;5074014;28;20190;-84
2023/08/26 10:41:09;;;;;;;13.55;11.48;;;;;;;30.88;37.98;92897.19;5054562;28;20220;-89
2023/08/26 10:43:35;;;;;;;13.40;12.23;;;;;;;30.73;38.74;92898.41;5071797;28;20897;-86
2023/08/26 10:46:01;;;;;;;13.63;12.40;;;;;;;30.78;38.45;92896.13;5067135;28;20232;-85
2023/08/26 10:48:27;;;;;;;13.60;12.35;;;;;;;30.66;38.37;92890.41;5064080;28;20214;-87
2023/08/26 10:51:00;;;;;;;13.30;12.07;;;;;;;30.65;38.60;92899.63;5061695;28;20241;-82
2023/08/26 10:53:26;;;;;;;13.90;12.77;;;;;;;30.42;39.93;92894.00;5071362;28;20188;-81
2023/08/26 10:55:53;;;;;;;14.60;13.23;;;;;;;30.72;39.68;92884.19;5062167;28;20865;-86
2023/08/26 10:58:20;;;;;;;13.75;12.27;;;;;;;30.98;38.98;92874.75;5063617;28;20182;-85
2023/08/26 11:00:52;;;;;;;13.63;12.32;;;;;;;31.15;38.79;92882.69;5061300;28;20236;-81
2023/08/26 11:03:19;;;;;;;12.80;11.65;;;;;;;31.41;37.99;92886.69;5057734;28;20278;-83
2023/08/26 11:05:46;;;;;;;14.43;13.20;;;;;;;31.24;36.99;92876.81;5061530;28;20233;-86
2023/08/26 11:08:12;;;;;;;13.07;11.98;;;;;;;31.39;37.70;92878.25;5065440;28;20235;-85
2023/08/26 11:10:40;;;;;;;13.32;12.32;;;;;;;31.46;37.77;92877.41;5061034;28;20225;-87
2023/08/26 11:13:09;;;;;;;13.10;12.00;;;;;;;31.35;36.63;92874.81;5060423;28;20207;-85